Burns, OR

6:27 PM PDT on April 23, 2017 (GMT -0700)
Burns Municipal | | Change Station

Elev 4147 ft 43.59 °N, 118.96 °W | Updated 34 minutes ago

Mostly Cloudy
Mostly Cloudy
54 °F
Feels Like 54 °F
N
14
Wind Variable Wind from WSW

Today
High -- | Low -- °F
--% Chance of Precip.
Yesterday
High -- | Low -- °F
Precip. -- in
Pressure 29.79 in
Visibility 10.0 miles
Clouds Few 7000 ft
Mostly Cloudy 9000 ft
Dew Point 24 °F
Humidity 31%
Rainfall 0.00 in
Snow Depth Not available.
5:59 AM 7:49 PM
Waning Crescent, 8% visible
METAR KBNO 240053Z AUTO 25012KT 10SM FEW070 BKN090 12/M04 A2981 RMK AO2 SLP087 T01221044
Pressure 29.79 in
Visibility 10.0 miles
Clouds Few 7000 ft
Mostly Cloudy 9000 ft
Dew Point 24 °F
Humidity 31%
Rainfall 0.00 in
Snow Depth Not available.
5:59 AM 7:49 PM
Waning Crescent, 8% visible
METAR KBNO 240053Z AUTO 25012KT 10SM FEW070 BKN090 12/M04 A2981 RMK AO2 SLP087 T01221044

Get Severe Weather Alerts

Thanks for signing up!

Be on the lookout for a verification email in your inbox.

You'll start receiving the daily forecast at 8 AM.

×

10-Day Weather Forecast

Almanac

Astronomy

Apr. 23, 2017 Rise Set
Actual Time
Civil Twilight
Nautical Twilight
Astronomical Twilight
Moon
Length of Visible Light
Length of Day
Tomorrow will be .
, % of the Moon is Illuminated

Today's Extremes

State Highs State Lows

Community

WunderPhotos

WunderBlog® & News

Nearby

Air Quality

  Air Quality AQ Index Pollutant
Not available.

Snow Depth

Station Depth Elevation

Earthquake Activity

City Distance Mag. Time & Date
Minimum magnitude displayed is 2.5.

Coastal Water Temperatures

Place Temperature

Stations

Nearby Weather Stations

Station Location Temp. Windchill Dew Point Humidity Wind Precip. Elev Updated Type
                   

Watches & Warnings

There are currently no watches in effect.